Terminal Aerodrome Forecast
Issued by NWS

Current Version | Previous Version | Text Only | Print | Product List | Glossary Off
Versions: 1 2 3 4 5 6 7 8 9 10 11 12 13 14 15 16 17 18 19 20 21 22

000
FTUS41 KRLX 220228 AAA
TAFCKB
TAF AMD
KCKB 220228Z 2202/2224 26003KT P6SM BKN045
     FM220400 VRB03KT 4SM BR SCT025
     FM221000 25008KT P6SM FEW040
     FM221800 25011G19KT P6SM BKN060
     FM222200 28010G17KT P6SM SCT045=

USA.gov is the U.S. government's official web portal to all federal, state and local government web resources and services.